createdAt,value
2019-02-05T00:00:18.207Z,289.05
2019-02-05T00:01:18.412Z,288.67
2019-02-05T00:02:18.593Z,288.75
2019-02-05T00:03:18.779Z,289.36
2019-02-05T00:04:19.012Z,289.41
2019-02-05T00:05:19.298Z,289.13
2019-02-05T00:06:19.470Z,289.35
2019-02-05T00:07:19.599Z,289.17
2019-02-05T00:08:19.805Z,288.93
2019-02-05T00:09:20.001Z,289.40
2019-02-05T00:10:20.181Z,288.65
2019-02-05T00:11:20.422Z,289.26
2019-02-05T00:12:25.282Z,288.59
2019-02-05T00:13:20.863Z,289.26
2019-02-05T00:14:20.994Z,289.22
2019-02-05T00:15:21.173Z,289.15
2019-02-05T00:16:21.381Z,290.75
2019-02-05T00:17:21.586Z,295.15
2019-02-05T00:18:21.785Z,289.82
2019-02-05T00:19:22.007Z,289.38
2019-02-05T00:20:22.192Z,288.91
2019-02-05T00:21:22.417Z,289.44
2019-02-05T00:22:22.634Z,289.11
2019-02-05T00:23:22.816Z,288.95
2019-02-05T00:24:23.026Z,289.24
2019-02-05T00:25:23.251Z,289.01
2019-02-05T00:26:23.433Z,289.07
2019-02-05T00:27:23.635Z,288.60
2019-02-05T00:28:23.817Z,288.67
2019-02-05T00:29:24.039Z,289.03
2019-02-05T00:30:24.336Z,288.90
2019-02-05T00:31:24.415Z,289.63
2019-02-05T00:32:24.608Z,289.08
2019-02-05T00:33:24.812Z,288.92
2019-02-05T00:34:25.022Z,289.24
2019-02-05T00:35:25.241Z,288.83
2019-02-05T00:36:25.424Z,289.44
2019-02-05T00:37:25.636Z,288.94
2019-02-05T00:38:25.914Z,289.14
2019-02-05T00:39:26.012Z,289.22
2019-02-05T00:40:26.202Z,289.17
2019-02-05T00:41:26.407Z,288.79
2019-02-05T00:42:26.603Z,289.65
2019-02-05T00:43:26.782Z,289.21
2019-02-05T00:44:27.013Z,288.89
2019-02-05T00:45:27.232Z,289.42
2019-02-05T00:46:27.451Z,289.16
2019-02-05T00:47:27.607Z,289.58
2019-02-05T00:48:27.771Z,288.89
2019-02-05T00:49:27.983Z,288.95
2019-02-05T00:50:28.172Z,288.96
2019-02-05T00:51:28.379Z,289.54
2019-02-05T00:52:28.609Z,289.17
2019-02-05T00:53:28.778Z,289.20
2019-02-05T00:54:29.015Z,288.86
2019-02-05T00:55:29.158Z,288.80
2019-02-05T00:56:29.380Z,288.86
2019-02-05T00:57:29.617Z,289.40
2019-02-05T00:58:29.806Z,289.03
2019-02-05T00:59:30.024Z,289.26
2019-02-05T01:00:30.225Z,289.02
2019-02-05T01:01:30.395Z,289.36
2019-02-05T01:02:30.699Z,289.01
2019-02-05T01:03:30.895Z,288.92
2019-02-05T01:04:31.027Z,289.24
2019-02-05T01:05:31.195Z,289.15
2019-02-05T01:06:31.408Z,289.25
2019-02-05T01:07:31.671Z,289.49
2019-02-05T01:08:31.822Z,289.43
2019-02-05T01:09:32.275Z,289.40
2019-02-05T01:10:32.228Z,289.02
2019-02-05T01:11:32.543Z,289.84
2019-02-05T01:12:32.726Z,289.76
2019-02-05T01:13:32.824Z,289.00
2019-02-05T01:14:33.033Z,288.80
2019-02-05T01:15:33.226Z,288.76
2019-02-05T01:16:33.396Z,289.02
2019-02-05T01:17:33.637Z,288.97
2019-02-05T01:18:33.834Z,289.44
2019-02-05T01:19:34.109Z,289.03
2019-02-05T01:20:34.228Z,288.73
2019-02-05T01:21:34.421Z,288.79
2019-02-05T01:22:34.623Z,289.00
2019-02-05T01:23:34.823Z,288.80
2019-02-05T01:24:35.037Z,289.11
2019-02-05T01:25:35.270Z,289.16
2019-02-05T01:26:35.416Z,289.52
2019-02-05T01:27:35.750Z,289.23
2019-02-05T01:28:35.789Z,289.61
2019-02-05T01:29:36.028Z,289.63
2019-02-05T01:30:36.215Z,289.21
2019-02-05T01:31:36.410Z,289.77
2019-02-05T01:32:36.635Z,289.49
2019-02-05T01:33:36.804Z,289.59
2019-02-05T01:34:37.009Z,289.46
2019-02-05T01:35:37.271Z,289.27
2019-02-05T01:36:37.445Z,289.20
2019-02-05T01:37:38.466Z,289.84
2019-02-05T01:38:37.813Z,289.82
2019-02-05T01:39:38.010Z,289.84
2019-02-05T01:40:38.220Z,289.59
2019-02-05T01:41:38.412Z,289.56
2019-02-05T01:42:38.628Z,289.44
2019-02-05T01:43:38.816Z,289.53
2019-02-05T01:44:39.145Z,289.47
2019-02-05T01:45:39.341Z,289.79
2019-02-05T01:46:39.407Z,289.27
2019-02-05T01:47:39.634Z,289.21
2019-02-05T01:48:39.807Z,289.40
2019-02-05T01:49:40.096Z,289.42
2019-02-05T01:50:40.197Z,289.44
2019-02-05T01:51:40.403Z,289.46
2019-02-05T01:52:40.773Z,289.25
2019-02-05T01:53:40.815Z,289.41
2019-02-05T01:54:41.008Z,289.06
2019-02-05T01:55:41.290Z,289.53
2019-02-05T01:56:41.422Z,288.98
2019-02-05T01:57:41.638Z,289.13
2019-02-05T01:58:41.826Z,289.15
2019-02-05T01:59:42.030Z,289.90
2019-02-05T02:00:42.281Z,289.16
2019-02-05T02:01:42.416Z,289.63
2019-02-05T02:02:42.654Z,289.49
2019-02-05T02:03:42.831Z,289.32
2019-02-05T02:04:43.029Z,289.30
2019-02-05T02:05:43.267Z,289.53
2019-02-05T02:06:43.431Z,289.73
2019-02-05T02:07:43.664Z,289.17
2019-02-05T02:08:43.924Z,289.15
2019-02-05T02:09:44.038Z,289.39
2019-02-05T02:10:44.297Z,289.15
2019-02-05T02:11:44.442Z,289.22
2019-02-05T02:12:44.680Z,288.85
2019-02-05T02:13:44.848Z,289.42
2019-02-05T02:14:45.047Z,289.99
2019-02-05T02:15:45.265Z,289.12
2019-02-05T02:16:45.463Z,289.15
2019-02-05T02:17:45.783Z,289.86
2019-02-05T02:18:45.845Z,289.64
2019-02-05T02:19:46.062Z,289.29
2019-02-05T02:20:46.277Z,289.17
2019-02-05T02:21:46.469Z,289.74
2019-02-05T02:22:46.752Z,289.46
2019-02-05T02:23:46.846Z,289.79
2019-02-05T02:24:47.054Z,289.04
2019-02-05T02:25:47.415Z,289.41
2019-02-05T02:26:52.004Z,289.49
2019-02-05T02:27:47.713Z,289.29
2019-02-05T02:28:47.844Z,289.68
2019-02-05T02:29:48.059Z,289.13
2019-02-05T02:30:48.294Z,289.12
2019-02-05T02:31:48.487Z,289.34
2019-02-05T02:32:48.714Z,289.10
2019-02-05T02:33:48.924Z,289.17
2019-02-05T02:34:49.064Z,289.35
2019-02-05T02:35:49.296Z,289.27
2019-02-05T02:36:49.606Z,288.76
2019-02-05T02:37:49.706Z,289.29
2019-02-05T02:38:49.876Z,289.46
2019-02-05T02:39:50.061Z,289.53
2019-02-05T02:40:50.295Z,289.49
2019-02-05T02:41:50.522Z,289.55
2019-02-05T02:42:50.669Z,289.66
2019-02-05T02:43:50.859Z,289.00
2019-02-05T02:44:51.058Z,289.89
2019-02-05T02:45:51.277Z,289.95
2019-02-05T02:46:51.457Z,290.03
2019-02-05T02:47:51.899Z,289.44
2019-02-05T02:48:51.863Z,289.68
2019-02-05T02:49:52.128Z,289.79
2019-02-05T02:50:52.331Z,289.23
2019-02-05T02:51:52.451Z,289.78
2019-02-05T02:52:52.684Z,289.64
2019-02-05T02:53:52.909Z,289.40
2019-02-05T02:54:53.063Z,289.50
2019-02-05T02:55:53.283Z,289.78
2019-02-05T02:57:04.348Z,289.55
2019-02-05T02:57:54.661Z,289.81
2019-02-05T02:58:54.016Z,289.70
2019-02-05T02:59:54.073Z,289.65
2019-02-05T03:00:54.323Z,289.96
2019-02-05T03:01:54.474Z,289.70
2019-02-05T03:02:54.683Z,290.04
2019-02-05T03:03:54.953Z,289.81
2019-02-05T03:04:55.091Z,289.63
2019-02-05T03:05:55.334Z,289.45
2019-02-05T03:06:55.559Z,289.56
2019-02-05T03:07:55.688Z,289.56
2019-02-05T03:08:55.922Z,289.48
2019-02-05T03:09:56.134Z,289.70
2019-02-05T03:10:56.371Z,289.92
2019-02-05T03:11:56.531Z,289.86
2019-02-05T03:12:56.716Z,290.38
2019-02-05T03:13:56.952Z,290.15
2019-02-05T03:14:57.252Z,289.93
2019-02-05T03:15:57.377Z,290.60
2019-02-05T03:16:57.534Z,290.83
2019-02-05T03:17:57.750Z,291.08
2019-02-05T03:18:57.934Z,290.46
2019-02-05T03:19:58.134Z,290.43
2019-02-05T03:20:58.400Z,290.41
2019-02-05T03:21:58.546Z,289.93
2019-02-05T03:22:58.802Z,289.90
2019-02-05T03:23:58.937Z,289.67
2019-02-05T03:24:59.118Z,290.25
2019-02-05T03:25:59.365Z,289.64
2019-02-05T03:26:59.535Z,289.61
2019-02-05T03:27:59.741Z,289.80
2019-02-05T03:28:59.960Z,289.22
2019-02-05T03:30:00.334Z,289.68
2019-02-05T03:31:00.409Z,289.80
2019-02-05T03:32:00.632Z,289.79
2019-02-05T03:33:00.742Z,289.86
2019-02-05T03:34:00.962Z,290.05
2019-02-05T03:35:01.144Z,290.28
2019-02-05T03:36:01.373Z,289.83
2019-02-05T03:37:01.545Z,289.34
2019-02-05T03:38:01.774Z,289.45
2019-02-05T03:39:01.995Z,289.99
2019-02-05T03:40:02.270Z,289.82
2019-02-05T03:41:02.755Z,289.60
2019-02-05T03:42:02.563Z,289.58
2019-02-05T03:43:02.774Z,289.74
2019-02-05T03:44:02.989Z,290.70
2019-02-05T03:45:03.153Z,290.47
2019-02-05T03:46:03.404Z,291.15
2019-02-05T03:47:03.543Z,289.99
2019-02-05T03:48:03.844Z,289.99
2019-02-05T03:49:03.999Z,289.33
2019-02-05T03:50:04.171Z,289.95
2019-02-05T03:51:04.427Z,289.20
2019-02-05T03:52:04.560Z,289.57
2019-02-05T03:53:04.804Z,289.52
2019-02-05T03:54:05.010Z,289.55
2019-02-05T03:55:05.176Z,289.54
2019-02-05T03:56:05.472Z,289.30
2019-02-05T03:57:05.558Z,289.75
2019-02-05T03:58:05.781Z,289.73
2019-02-05T03:59:05.974Z,289.80
2019-02-05T04:00:06.162Z,289.68
2019-02-05T04:01:06.386Z,289.71
2019-02-05T04:02:06.569Z,289.25
2019-02-05T04:03:06.779Z,289.69
2019-02-05T04:04:07.003Z,289.63
2019-02-05T04:05:07.182Z,289.90
2019-02-05T04:06:07.354Z,289.98
2019-02-05T04:07:07.621Z,289.66
2019-02-05T04:08:07.822Z,289.80
2019-02-05T04:09:08.003Z,290.63
2019-02-05T04:10:08.199Z,290.34
2019-02-05T04:11:08.367Z,290.17
2019-02-05T04:12:08.634Z,290.31
2019-02-05T04:13:08.925Z,290.30
2019-02-05T04:14:08.998Z,289.32
2019-02-05T04:15:09.170Z,289.97
2019-02-05T04:16:09.384Z,290.61
2019-02-05T04:17:09.596Z,290.58
2019-02-05T04:18:09.814Z,289.99
2019-02-05T04:19:10.013Z,290.33
2019-02-05T04:20:10.185Z,290.48
2019-02-05T04:21:10.490Z,290.34
2019-02-05T04:22:10.603Z,290.24
2019-02-05T04:23:10.782Z,290.46
2019-02-05T04:24:11.238Z,291.07
2019-02-05T04:25:11.189Z,290.67
2019-02-05T04:26:11.375Z,290.26
2019-02-05T04:27:11.620Z,290.42
2019-02-05T04:28:11.795Z,290.48
2019-02-05T04:29:12.102Z,290.60
2019-02-05T04:30:12.180Z,290.28
2019-02-05T04:31:12.365Z,290.36
2019-02-05T04:32:12.625Z,290.79
2019-02-05T04:33:12.802Z,290.75
2019-02-05T04:34:13.015Z,291.00
2019-02-05T04:35:13.202Z,290.57
2019-02-05T04:36:13.399Z,290.62
2019-02-05T04:37:13.701Z,290.75
2019-02-05T04:38:13.776Z,290.81
2019-02-05T04:39:14.021Z,291.09
2019-02-05T04:40:14.202Z,290.92
2019-02-05T04:41:14.402Z,290.64
2019-02-05T04:42:14.956Z,290.87
2019-02-05T04:43:14.794Z,290.90
2019-02-05T04:44:15.005Z,290.70
2019-02-05T04:45:15.240Z,290.52
2019-02-05T04:46:15.417Z,290.52
2019-02-05T04:47:15.656Z,290.70
2019-02-05T04:48:15.807Z,290.26
2019-02-05T04:49:16.007Z,290.34
2019-02-05T04:50:16.206Z,291.38
2019-02-05T04:51:16.421Z,290.52
2019-02-05T04:52:16.668Z,291.43
2019-02-05T04:53:16.951Z,291.46
2019-02-05T04:54:17.160Z,291.51
2019-02-05T04:55:17.258Z,292.01
2019-02-05T04:56:17.459Z,293.16
2019-02-05T04:57:17.701Z,293.28
2019-02-05T04:58:17.855Z,292.32
2019-02-05T04:59:18.072Z,292.01
2019-02-05T05:00:18.257Z,292.54
2019-02-05T05:01:18.452Z,292.25
2019-02-05T05:02:18.845Z,292.00
2019-02-05T05:03:18.886Z,292.55
2019-02-05T05:04:19.078Z,293.21
2019-02-05T05:05:19.240Z,293.17
2019-02-05T05:06:19.458Z,292.72
2019-02-05T05:07:19.674Z,293.26
2019-02-05T05:08:19.866Z,291.99
2019-02-05T05:09:20.062Z,291.72
2019-02-05T05:10:20.307Z,291.78
2019-02-05T05:11:20.445Z,292.29
2019-02-05T05:12:20.667Z,293.91
2019-02-05T05:13:20.880Z,293.30
2019-02-05T05:14:21.051Z,292.68
2019-02-05T05:15:21.267Z,292.66
2019-02-05T05:16:21.454Z,293.28
2019-02-05T05:17:21.672Z,292.35
2019-02-05T05:18:21.918Z,292.72
2019-02-05T05:19:22.070Z,292.45
2019-02-05T05:20:22.272Z,292.55
2019-02-05T05:21:22.487Z,292.33
2019-02-05T05:22:22.685Z,292.48
2019-02-05T05:23:22.901Z,293.07
2019-02-05T05:24:23.107Z,291.70
2019-02-05T05:25:23.317Z,291.77
2019-02-05T05:26:23.524Z,291.58
2019-02-05T05:27:23.785Z,291.85
2019-02-05T05:28:23.918Z,292.67
2019-02-05T05:29:24.166Z,293.00
2019-02-05T05:30:24.343Z,293.35
2019-02-05T05:31:24.519Z,292.20
2019-02-05T05:32:24.737Z,292.52
2019-02-05T05:33:24.950Z,292.80
2019-02-05T05:34:25.151Z,294.30
2019-02-05T05:35:25.512Z,297.36
2019-02-05T05:36:25.527Z,297.21
2019-02-05T05:37:25.733Z,296.04
2019-02-05T05:38:25.902Z,294.13
2019-02-05T05:39:26.102Z,293.16
2019-02-05T05:40:26.331Z,294.11
2019-02-05T05:41:26.514Z,293.87
2019-02-05T05:42:26.735Z,294.63
2019-02-05T05:43:27.023Z,293.16
2019-02-05T05:44:27.095Z,292.31
2019-02-05T05:45:27.331Z,293.08
2019-02-05T05:46:27.512Z,291.62
2019-02-05T05:47:27.730Z,292.14
2019-02-05T05:48:27.919Z,291.97
2019-02-05T05:49:28.104Z,292.34
2019-02-05T05:50:28.313Z,292.10
2019-02-05T05:51:28.549Z,292.44
2019-02-05T05:52:28.720Z,292.16
2019-02-05T05:53:28.928Z,292.06
2019-02-05T05:54:29.130Z,291.95
2019-02-05T05:55:29.317Z,293.09
2019-02-05T05:56:29.485Z,291.60
2019-02-05T05:57:29.715Z,291.96
2019-02-05T05:58:29.892Z,292.55
2019-02-05T05:59:30.170Z,292.13
2019-02-05T06:00:30.306Z,291.12
2019-02-05T06:01:30.480Z,291.86
2019-02-05T06:02:30.945Z,292.23
2019-02-05T06:03:30.897Z,292.05
2019-02-05T06:04:31.140Z,292.60
2019-02-05T06:05:31.320Z,291.39
2019-02-05T06:06:31.495Z,292.46
2019-02-05T06:07:31.757Z,291.67
2019-02-05T06:08:32.032Z,291.89
2019-02-05T06:09:32.246Z,293.32
2019-02-05T06:10:32.336Z,292.38
2019-02-05T06:11:32.514Z,292.70
2019-02-05T06:12:37.351Z,292.96
2019-02-05T06:13:32.901Z,292.78
2019-02-05T06:14:33.119Z,292.27
2019-02-05T06:15:35.733Z,293.36
2019-02-05T06:16:33.851Z,292.54
2019-02-05T06:17:33.740Z,293.58
2019-02-05T06:18:33.903Z,295.03
2019-02-05T06:19:34.107Z,294.32
2019-02-05T06:20:34.326Z,293.60
2019-02-05T06:21:34.517Z,294.42
2019-02-05T06:22:34.733Z,295.75
2019-02-05T06:23:34.997Z,293.98
2019-02-05T06:24:35.178Z,292.86
2019-02-05T06:25:35.325Z,292.79
2019-02-05T06:26:35.605Z,292.44
2019-02-05T06:27:35.724Z,292.57
2019-02-05T06:28:35.914Z,291.84
2019-02-05T06:29:36.088Z,292.21
2019-02-05T06:30:36.321Z,291.47
2019-02-05T06:31:36.520Z,292.58
2019-02-05T06:32:36.766Z,292.12
2019-02-05T06:33:36.896Z,292.53
2019-02-05T06:34:37.103Z,293.58
2019-02-05T06:35:37.311Z,293.88
2019-02-05T06:36:37.499Z,292.37
2019-02-05T06:37:37.723Z,292.84
2019-02-05T06:38:37.919Z,293.27
2019-02-05T06:39:38.101Z,292.69
2019-02-05T06:40:38.361Z,292.55
2019-02-05T06:41:38.612Z,293.04
2019-02-05T06:42:38.814Z,292.46
2019-02-05T06:43:39.052Z,292.48
2019-02-05T06:44:39.247Z,292.39
2019-02-05T06:45:41.407Z,292.84
2019-02-05T06:46:39.660Z,292.16
2019-02-05T06:47:39.860Z,293.34
2019-02-05T06:48:40.134Z,292.90
2019-02-05T06:49:40.390Z,292.72
2019-02-05T06:50:40.509Z,292.20
2019-02-05T06:51:40.686Z,292.28
2019-02-05T06:52:41.032Z,292.38
2019-02-05T06:53:41.184Z,292.93
2019-02-05T06:54:41.342Z,293.02
2019-02-05T06:55:41.556Z,292.37
2019-02-05T06:56:42.466Z,292.15
2019-02-05T06:57:42.031Z,294.32
2019-02-05T06:58:46.635Z,294.01
2019-02-05T06:59:42.363Z,292.79
2019-02-05T07:00:42.591Z,292.73
2019-02-05T07:01:42.783Z,292.08
2019-02-05T07:02:42.965Z,292.45
2019-02-05T07:03:43.254Z,291.83
2019-02-05T07:04:43.436Z,292.28
2019-02-05T07:05:43.697Z,292.86
2019-02-05T07:06:43.819Z,292.84
2019-02-05T07:07:44.022Z,292.67
2019-02-05T07:08:44.235Z,292.05
2019-02-05T07:09:44.445Z,292.26
2019-02-05T07:10:44.659Z,293.42
2019-02-05T07:11:44.849Z,293.79
2019-02-05T07:12:45.057Z,293.06
2019-02-05T07:13:45.332Z,293.77
2019-02-05T07:14:45.372Z,293.60
2019-02-05T07:15:45.598Z,295.12
2019-02-05T07:16:45.802Z,294.54
2019-02-05T07:17:49.739Z,293.65
2019-02-05T07:18:46.266Z,293.88
2019-02-05T07:19:46.435Z,293.03
2019-02-05T07:20:46.633Z,293.16
2019-02-05T07:21:47.061Z,293.59
2019-02-05T07:22:47.138Z,293.30
2019-02-05T07:23:47.288Z,293.53
2019-02-05T07:24:47.488Z,292.88
2019-02-05T07:25:47.710Z,293.02
2019-02-05T07:26:47.900Z,294.10
2019-02-05T07:27:48.115Z,293.15
2019-02-05T07:28:57.715Z,292.98
2019-02-05T07:29:49.526Z,293.55
2019-02-05T07:30:48.906Z,294.27
2019-02-05T07:31:48.939Z,294.38
2019-02-05T07:32:49.144Z,293.74
2019-02-05T07:33:49.370Z,293.05
2019-02-05T07:34:49.547Z,294.14
2019-02-05T07:35:49.778Z,295.46
2019-02-05T07:36:50.005Z,294.89
2019-02-05T07:37:50.195Z,294.07
2019-02-05T07:38:50.526Z,293.85
2019-02-05T07:39:50.591Z,294.05
2019-02-05T07:40:50.810Z,294.36
2019-02-05T07:41:51.017Z,294.10
2019-02-05T07:42:51.221Z,293.92
2019-02-05T07:43:51.443Z,294.18
2019-02-05T07:44:51.643Z,294.10
2019-02-05T07:45:51.827Z,293.57
2019-02-05T07:46:52.093Z,293.86
2019-02-05T07:47:52.253Z,293.61
2019-02-05T07:48:52.483Z,294.42
2019-02-05T07:49:52.693Z,294.01
2019-02-05T07:50:52.882Z,294.67
2019-02-05T07:51:53.103Z,294.18
2019-02-05T07:52:53.293Z,293.91
2019-02-05T07:53:53.529Z,293.69
2019-02-05T07:54:53.779Z,297.23
2019-02-05T07:55:53.903Z,294.20
2019-02-05T07:56:54.141Z,293.28
2019-02-05T07:57:54.318Z,294.89
2019-02-05T07:58:54.560Z,294.65
2019-02-05T07:59:54.778Z,295.98
2019-02-05T08:00:54.986Z,294.88
2019-02-05T08:01:55.192Z,293.88
2019-02-05T08:02:55.397Z,293.67
2019-02-05T08:03:55.662Z,293.06
2019-02-05T08:04:55.828Z,293.35
2019-02-05T08:05:56.031Z,293.98
2019-02-05T08:06:56.235Z,293.40
2019-02-05T08:07:56.415Z,292.57
2019-02-05T08:08:56.623Z,293.20
2019-02-05T08:09:56.810Z,293.24
2019-02-05T08:10:57.076Z,292.88
2019-02-05T08:11:57.386Z,292.99
2019-02-05T08:12:57.440Z,292.37
2019-02-05T08:13:57.649Z,292.71
2019-02-05T08:14:57.853Z,293.27
2019-02-05T08:15:58.087Z,295.21
2019-02-05T08:16:58.310Z,294.10
2019-02-05T08:17:58.497Z,293.45
2019-02-05T08:18:58.721Z,293.49
2019-02-05T08:19:58.958Z,293.53
2019-02-05T08:20:59.135Z,293.67
2019-02-05T08:21:59.328Z,293.59
2019-02-05T08:22:59.515Z,293.40
2019-02-05T08:23:59.741Z,293.85
2019-02-05T08:24:59.934Z,293.78
2019-02-05T08:26:00.155Z,294.19
2019-02-05T08:27:00.357Z,294.31
2019-02-05T08:28:00.631Z,293.79
2019-02-05T08:29:00.751Z,294.18
2019-02-05T08:30:00.950Z,294.47
2019-02-05T08:31:01.190Z,292.99
2019-02-05T08:32:01.367Z,292.84
2019-02-05T08:33:01.657Z,293.31
2019-02-05T08:34:03.244Z,293.14
2019-02-05T08:35:01.985Z,293.33
2019-02-05T08:36:02.229Z,294.59
2019-02-05T08:37:02.423Z,292.81
2019-02-05T08:38:02.605Z,292.87
2019-02-05T08:39:02.826Z,292.78
2019-02-05T08:40:03.016Z,293.45
2019-02-05T08:41:03.222Z,291.98
2019-02-05T08:42:03.560Z,291.79
2019-02-05T08:43:03.621Z,292.04
2019-02-05T08:44:03.857Z,292.23
2019-02-05T08:45:04.174Z,292.12
2019-02-05T08:46:04.285Z,291.89
2019-02-05T08:47:04.483Z,291.98
2019-02-05T08:48:04.671Z,291.91
2019-02-05T08:49:04.892Z,291.61
2019-02-05T08:50:05.120Z,292.39
2019-02-05T08:51:05.332Z,292.50
2019-02-05T08:52:05.540Z,292.27
2019-02-05T08:53:05.865Z,291.61
2019-02-05T08:54:05.935Z,291.15
2019-02-05T08:55:06.162Z,291.15
2019-02-05T08:56:06.380Z,292.03
2019-02-05T08:57:06.600Z,292.13
2019-02-05T08:58:06.779Z,292.34
2019-02-05T08:59:06.976Z,292.75
2019-02-05T09:00:07.214Z,291.81
2019-02-05T09:01:07.458Z,292.84
2019-02-05T09:02:07.605Z,294.74
2019-02-05T09:03:07.803Z,292.29
2019-02-05T09:04:07.994Z,292.24
2019-02-05T09:05:08.238Z,291.87
2019-02-05T09:06:08.451Z,291.64
2019-02-05T09:07:08.657Z,291.27
2019-02-05T09:08:08.868Z,291.47
2019-02-05T09:09:09.099Z,292.05
2019-02-05T09:10:09.246Z,292.73
2019-02-05T09:11:09.468Z,292.00
2019-02-05T09:12:09.682Z,291.27
2019-02-05T09:13:09.951Z,291.12
2019-02-05T09:14:10.667Z,291.84
2019-02-05T09:15:10.310Z,293.30
2019-02-05T09:16:10.496Z,292.00
2019-02-05T09:17:10.748Z,290.55
2019-02-05T09:18:11.015Z,291.42
2019-02-05T09:19:11.134Z,291.40
2019-02-05T09:20:11.589Z,291.31
2019-02-05T09:21:11.562Z,292.01
2019-02-05T09:22:11.747Z,292.10
2019-02-05T09:23:14.157Z,291.16
2019-02-05T09:24:12.167Z,291.63
2019-02-05T09:25:12.411Z,291.64
2019-02-05T09:26:12.675Z,291.34
2019-02-05T09:27:12.799Z,292.06
2019-02-05T09:28:13.004Z,291.80
2019-02-05T09:29:13.205Z,292.05
2019-02-05T09:30:13.430Z,292.79
2019-02-05T09:31:13.631Z,291.79
2019-02-05T09:32:13.850Z,291.88
2019-02-05T09:33:14.018Z,291.86
2019-02-05T09:34:14.347Z,292.20
2019-02-05T09:35:14.457Z,294.66
2019-02-05T09:36:14.662Z,293.62
2019-02-05T09:37:14.875Z,293.41
2019-02-05T09:38:15.049Z,292.25
2019-02-05T09:39:15.271Z,292.36
2019-02-05T09:40:15.493Z,292.49
2019-02-05T09:41:15.696Z,292.70
2019-02-05T09:42:15.932Z,293.12
2019-02-05T09:43:16.054Z,292.62
2019-02-05T09:44:16.277Z,291.92
2019-02-05T09:45:16.515Z,291.91
2019-02-05T09:46:16.713Z,291.97
2019-02-05T09:47:16.928Z,292.55
2019-02-05T09:48:17.114Z,292.61
2019-02-05T09:49:17.320Z,292.81
2019-02-05T09:50:17.561Z,291.94
2019-02-05T09:51:17.763Z,292.21
2019-02-05T09:52:17.941Z,292.35
2019-02-05T09:53:18.155Z,292.40
2019-02-05T09:54:18.361Z,292.71
2019-02-05T09:55:18.570Z,292.57
2019-02-05T09:56:18.803Z,292.80
2019-02-05T09:57:18.984Z,293.02
2019-02-05T09:58:19.244Z,293.12
2019-02-05T09:59:19.515Z,292.16
2019-02-05T10:00:19.619Z,292.79
2019-02-05T10:01:19.854Z,291.80
2019-02-05T10:02:20.036Z,291.56
2019-02-05T10:03:20.274Z,292.74
2019-02-05T10:04:20.457Z,292.90
2019-02-05T10:05:20.684Z,292.97
2019-02-05T10:06:20.900Z,292.93
2019-02-05T10:07:21.173Z,293.12
2019-02-05T10:08:21.296Z,292.95
2019-02-05T10:09:21.485Z,292.78
2019-02-05T10:10:21.715Z,293.28
2019-02-05T10:11:21.915Z,292.94
2019-02-05T10:12:22.126Z,292.95
2019-02-05T10:13:22.352Z,293.19
2019-02-05T10:14:22.541Z,292.63
2019-02-05T10:15:22.802Z,293.49
2019-02-05T10:16:22.941Z,295.37
2019-02-05T10:17:23.138Z,296.90
2019-02-05T10:18:23.373Z,294.01
2019-02-05T10:19:23.556Z,293.30
2019-02-05T10:20:23.790Z,293.35
2019-02-05T10:21:24.007Z,293.22
2019-02-05T10:22:24.182Z,292.87
2019-02-05T10:23:24.432Z,293.15
2019-02-05T10:24:24.578Z,293.78
2019-02-05T10:25:24.809Z,293.51
2019-02-05T10:26:25.016Z,293.53
2019-02-05T10:27:25.205Z,292.91
2019-02-05T10:28:25.428Z,293.49
2019-02-05T10:29:25.599Z,293.76
2019-02-05T10:30:25.842Z,293.22
2019-02-05T10:31:26.071Z,293.05
2019-02-05T10:32:26.302Z,292.87
2019-02-05T10:33:26.462Z,293.30
2019-02-05T10:34:33.820Z,293.35
2019-02-05T10:35:27.879Z,296.20
2019-02-05T10:36:27.097Z,294.08
2019-02-05T10:37:27.265Z,294.19
2019-02-05T10:38:27.508Z,294.50
2019-02-05T10:39:27.706Z,294.04
2019-02-05T10:40:28.029Z,293.90
2019-02-05T10:41:28.110Z,293.82
2019-02-05T10:42:28.308Z,294.13
2019-02-05T10:43:28.529Z,293.79
2019-02-05T10:44:28.717Z,293.22
2019-02-05T10:45:29.070Z,293.99
2019-02-05T10:46:29.375Z,294.30
2019-02-05T10:47:29.329Z,294.40
2019-02-05T10:48:29.656Z,294.43
2019-02-05T10:49:29.721Z,293.49
2019-02-05T10:50:29.962Z,293.31
2019-02-05T10:51:30.202Z,292.68
2019-02-05T10:52:30.374Z,292.83
2019-02-05T10:53:30.600Z,292.46
2019-02-05T10:54:30.792Z,292.44
2019-02-05T10:55:30.995Z,294.30
2019-02-05T10:56:31.256Z,294.42
2019-02-05T10:57:31.391Z,293.95
2019-02-05T10:58:31.617Z,293.84
2019-02-05T10:59:31.808Z,293.07
2019-02-05T11:00:32.242Z,293.41
2019-02-05T11:01:32.302Z,291.94
2019-02-05T11:02:32.429Z,292.02
2019-02-05T11:03:32.670Z,291.98
2019-02-05T11:04:32.920Z,292.87
2019-02-05T11:05:33.043Z,292.19
2019-02-05T11:06:33.318Z,292.67
2019-02-05T11:07:33.489Z,292.38
2019-02-05T11:08:33.696Z,293.28
2019-02-05T11:09:33.906Z,293.75
2019-02-05T11:10:34.103Z,293.22
2019-02-05T11:11:34.344Z,289.64
2019-02-05T11:12:34.527Z,289.94
2019-02-05T11:13:34.792Z,290.33
2019-02-05T11:14:34.938Z,291.37
2019-02-05T11:15:35.148Z,290.55
2019-02-05T11:16:35.415Z,291.49
2019-02-05T11:17:35.592Z,293.38
2019-02-05T11:18:35.784Z,292.30
2019-02-05T11:19:35.957Z,291.93
2019-02-05T11:20:36.183Z,292.01
2019-02-05T11:21:36.535Z,292.83
2019-02-05T11:22:36.625Z,292.30
2019-02-05T11:23:36.820Z,291.49
2019-02-05T11:24:37.019Z,292.68
2019-02-05T11:25:37.246Z,292.84
2019-02-05T11:26:37.525Z,292.99
2019-02-05T11:27:37.701Z,291.90
2019-02-05T11:28:37.889Z,292.80
2019-02-05T11:29:38.167Z,292.84
2019-02-05T11:30:38.271Z,293.36
2019-02-05T11:31:38.501Z,291.66
2019-02-05T11:32:38.731Z,292.18
2019-02-05T11:33:38.904Z,292.24
2019-02-05T11:34:39.101Z,292.28
2019-02-05T11:35:39.294Z,292.56
2019-02-05T11:36:39.533Z,293.25
2019-02-05T11:37:39.813Z,293.30
2019-02-05T11:38:39.928Z,291.62
2019-02-05T11:39:40.125Z,291.63
2019-02-05T11:40:40.334Z,291.48
2019-02-05T11:41:40.543Z,292.08
2019-02-05T11:42:40.747Z,292.38
2019-02-05T11:43:40.988Z,293.26
2019-02-05T11:44:41.182Z,292.92
2019-02-05T11:45:41.419Z,292.72
2019-02-05T11:46:41.603Z,293.27
2019-02-05T11:47:41.799Z,292.35
2019-02-05T11:48:42.039Z,291.77
2019-02-05T11:49:42.225Z,292.12
2019-02-05T11:50:42.433Z,291.00
2019-02-05T11:51:42.696Z,292.23
2019-02-05T11:52:42.876Z,291.67
2019-02-05T11:53:43.070Z,292.19
2019-02-05T11:54:43.387Z,291.53
2019-02-05T11:55:43.473Z,291.06
2019-02-05T11:56:43.700Z,292.20
2019-02-05T11:57:43.879Z,290.64
2019-02-05T11:58:44.095Z,291.10
2019-02-05T11:59:44.309Z,291.65
2019-02-05T12:00:44.526Z,291.98
2019-02-05T12:01:44.784Z,290.90
2019-02-05T12:02:45.093Z,291.34
2019-02-05T12:03:45.149Z,291.67
2019-02-05T12:04:45.378Z,292.30
2019-02-05T12:05:45.575Z,292.67
2019-02-05T12:06:45.810Z,291.18
2019-02-05T12:07:46.039Z,291.47
2019-02-05T12:08:46.180Z,292.10
2019-02-05T12:09:46.425Z,291.78
2019-02-05T12:10:46.701Z,292.07
2019-02-05T12:11:46.864Z,292.98
2019-02-05T12:12:51.072Z,291.38
2019-02-05T12:13:47.312Z,291.86
2019-02-05T12:14:50.201Z,292.10
2019-02-05T12:15:47.674Z,295.80
2019-02-05T12:16:47.917Z,291.90
2019-02-05T12:17:48.478Z,291.52
2019-02-05T12:18:48.344Z,290.98
2019-02-05T12:19:48.513Z,291.30
2019-02-05T12:20:48.716Z,292.52
2019-02-05T12:21:48.961Z,292.14
2019-02-05T12:22:49.191Z,292.51
2019-02-05T12:23:49.720Z,292.06
2019-02-05T12:24:49.588Z,291.58
2019-02-05T12:25:49.895Z,292.45
2019-02-05T12:26:50.030Z,291.96
2019-02-05T12:27:50.355Z,291.50
2019-02-05T12:28:50.415Z,290.99
2019-02-05T12:29:51.211Z,291.20
2019-02-05T12:30:50.806Z,291.44